createdAt,value
2024-02-05T00:02:13.845Z,9.28
2024-02-05T00:04:40.274Z,9.28
2024-02-05T00:07:07.012Z,9.31
2024-02-05T00:09:33.542Z,9.34
2024-02-05T00:12:00.528Z,9.35
2024-02-05T00:14:26.888Z,9.34
2024-02-05T00:16:53.251Z,9.26
2024-02-05T00:19:19.745Z,9.24
2024-02-05T00:21:46.244Z,9.26
2024-02-05T00:24:12.611Z,9.33
2024-02-05T00:26:38.976Z,9.33
2024-02-05T00:29:08.719Z,9.29
2024-02-05T00:31:35.155Z,9.30
2024-02-05T00:34:01.667Z,9.26
2024-02-05T00:36:28.664Z,9.21
2024-02-05T00:38:55.063Z,9.24
2024-02-05T00:41:21.442Z,9.19
2024-02-05T00:43:47.817Z,9.20
2024-02-05T00:46:24.014Z,9.26
2024-02-05T00:48:50.867Z,9.26
2024-02-05T00:51:17.332Z,9.24
2024-02-05T00:53:43.713Z,9.24
2024-02-05T00:56:10.094Z,9.27
2024-02-05T00:58:36.469Z,9.26
2024-02-05T01:01:03.157Z,9.27
2024-02-05T01:03:29.572Z,9.25
2024-02-05T01:05:59.168Z,9.24
2024-02-05T01:08:26.007Z,9.23
2024-02-05T01:10:54.097Z,9.19
2024-02-05T01:13:20.729Z,9.25
2024-02-05T01:15:47.170Z,9.16
2024-02-05T01:18:13.640Z,9.25
2024-02-05T01:20:40.458Z,9.19
2024-02-05T01:23:06.832Z,9.20
2024-02-05T01:25:33.193Z,9.20
2024-02-05T01:27:59.627Z,9.18
2024-02-05T01:30:26.028Z,9.19
2024-02-05T01:32:52.505Z,9.16
2024-02-05T01:35:18.923Z,9.18
2024-02-05T01:37:45.296Z,9.14
2024-02-05T01:40:12.045Z,9.23
2024-02-05T01:42:39.108Z,9.19
2024-02-05T01:45:08.501Z,9.17
2024-02-05T01:47:38.539Z,9.20
2024-02-05T01:50:06.568Z,9.17
2024-02-05T01:52:33.836Z,9.22
2024-02-05T01:55:00.289Z,9.13
2024-02-05T01:57:26.905Z,9.16
2024-02-05T01:59:53.302Z,9.14
2024-02-05T02:02:19.677Z,9.18
2024-02-05T02:04:46.182Z,9.15
2024-02-05T02:07:13.133Z,9.15
2024-02-05T02:09:39.694Z,9.15
2024-02-05T02:12:06.341Z,9.10
2024-02-05T02:14:32.737Z,9.11
2024-02-05T02:16:59.179Z,9.12
2024-02-05T02:19:34.022Z,9.13
2024-02-05T02:22:20.410Z,9.17
2024-02-05T02:24:46.859Z,9.12
2024-02-05T02:27:13.250Z,9.07
2024-02-05T02:29:39.621Z,9.11
2024-02-05T02:32:19.055Z,9.09
2024-02-05T02:34:45.871Z,9.15
2024-02-05T02:37:14.307Z,9.06
2024-02-05T02:39:43.430Z,9.08
2024-02-05T02:42:09.845Z,9.12
2024-02-05T02:44:36.223Z,9.07
2024-02-05T02:47:02.742Z,9.06
2024-02-05T02:49:29.325Z,9.05
2024-02-05T02:51:55.875Z,9.03
2024-02-05T02:54:22.709Z,9.05
2024-02-05T02:56:49.088Z,9.00
2024-02-05T02:59:15.455Z,9.00
2024-02-05T03:01:41.979Z,9.01
2024-02-05T03:04:08.579Z,9.04
2024-02-05T03:06:35.247Z,9.02
2024-02-05T03:09:01.637Z,9.01
2024-02-05T03:11:28.523Z,9.01
2024-02-05T03:13:54.961Z,8.99
2024-02-05T03:16:21.543Z,9.00
2024-02-05T03:18:48.060Z,8.92
2024-02-05T03:21:14.441Z,8.96
2024-02-05T03:23:40.990Z,9.00
2024-02-05T03:26:07.495Z,8.95
2024-02-05T03:28:33.865Z,9.00
2024-02-05T03:31:00.324Z,8.96
2024-02-05T03:33:27.208Z,8.94
2024-02-05T03:35:53.574Z,8.97
2024-02-05T03:38:19.930Z,8.98
2024-02-05T03:40:46.325Z,8.91
2024-02-05T03:43:12.766Z,8.95
2024-02-05T03:45:39.209Z,8.91
2024-02-05T03:48:05.946Z,8.93
2024-02-05T03:50:32.964Z,8.96
2024-02-05T03:52:59.363Z,8.88
2024-02-05T03:55:25.941Z,8.93
2024-02-05T03:57:58.842Z,8.88
2024-02-05T04:00:25.238Z,8.87
2024-02-05T04:02:51.620Z,8.87
2024-02-05T04:05:19.158Z,8.86
2024-02-05T04:07:45.534Z,8.88
2024-02-05T04:10:11.943Z,8.88
2024-02-05T04:12:38.375Z,8.84
2024-02-05T04:15:04.946Z,8.91
2024-02-05T04:17:31.335Z,8.84
2024-02-05T04:19:57.769Z,8.81
2024-02-05T04:22:24.229Z,8.83
2024-02-05T04:24:50.680Z,8.86
2024-02-05T04:27:17.098Z,8.84
2024-02-05T04:29:43.544Z,8.85
2024-02-05T04:32:10.352Z,8.85
2024-02-05T04:34:37.060Z,8.84
2024-02-05T04:37:03.567Z,8.85
2024-02-05T04:39:29.981Z,8.87
2024-02-05T04:41:56.414Z,8.84
2024-02-05T04:44:22.818Z,8.86
2024-02-05T04:46:49.194Z,8.88
2024-02-05T04:49:15.693Z,8.85
2024-02-05T04:51:42.164Z,8.80
2024-02-05T04:54:08.963Z,8.85
2024-02-05T04:56:35.670Z,8.84
2024-02-05T04:59:02.111Z,8.86
2024-02-05T05:01:28.581Z,8.76
2024-02-05T05:03:55.027Z,8.83
2024-02-05T05:06:21.429Z,8.78
2024-02-05T05:08:47.824Z,8.79
2024-02-05T05:11:23.649Z,8.82
2024-02-05T05:13:50.502Z,8.79
2024-02-05T05:16:18.065Z,8.81
2024-02-05T05:18:44.793Z,8.78
2024-02-05T05:21:11.251Z,8.81
2024-02-05T05:23:37.650Z,8.78
2024-02-05T05:26:04.143Z,8.80
2024-02-05T05:28:32.037Z,8.80
2024-02-05T05:30:58.435Z,8.74
2024-02-05T05:33:25.043Z,8.76
2024-02-05T05:35:51.432Z,8.72
2024-02-05T05:38:18.031Z,8.73
2024-02-05T05:40:44.707Z,8.64
2024-02-05T05:43:11.230Z,8.71
2024-02-05T05:45:37.706Z,8.73
2024-02-05T05:48:07.138Z,8.72
2024-02-05T05:50:33.873Z,8.67
2024-02-05T05:53:00.243Z,8.64
2024-02-05T05:55:26.697Z,8.59
2024-02-05T05:57:53.776Z,8.57
2024-02-05T06:00:22.443Z,8.62
2024-02-05T06:02:49.678Z,8.56
2024-02-05T06:05:16.203Z,8.55
2024-02-05T06:07:42.868Z,8.54
2024-02-05T06:10:10.143Z,8.53
2024-02-05T06:12:36.639Z,8.51
2024-02-05T06:15:04.058Z,8.56
2024-02-05T06:17:30.498Z,8.51
2024-02-05T06:19:56.978Z,8.50
2024-02-05T06:22:23.842Z,8.53
2024-02-05T06:24:50.491Z,8.49
2024-02-05T06:27:17.111Z,8.46
2024-02-05T06:29:43.527Z,8.40
2024-02-05T06:32:09.958Z,8.41
2024-02-05T06:34:36.382Z,8.38
2024-02-05T06:37:02.912Z,8.38
2024-02-05T06:39:29.547Z,8.33
2024-02-05T06:41:55.969Z,8.25
2024-02-05T06:44:22.368Z,8.29
2024-02-05T06:46:48.740Z,8.27
2024-02-05T06:49:16.627Z,8.23
2024-02-05T06:51:43.178Z,8.19
2024-02-05T06:54:09.892Z,8.17
2024-02-05T06:56:36.309Z,8.18
2024-02-05T06:59:02.691Z,8.24
2024-02-05T07:01:29.455Z,8.19
2024-02-05T07:03:56.067Z,8.18
2024-02-05T07:06:22.668Z,8.22
2024-02-05T07:08:49.084Z,8.15
2024-02-05T07:11:15.558Z,8.17
2024-02-05T07:13:41.938Z,8.21
2024-02-05T07:16:12.128Z,8.19
2024-02-05T07:18:38.620Z,8.21
2024-02-05T07:21:06.172Z,8.17
2024-02-05T07:23:32.931Z,8.27
2024-02-05T07:25:59.311Z,8.32
2024-02-05T07:28:25.836Z,8.29
2024-02-05T07:30:52.324Z,8.24
2024-02-05T07:33:18.772Z,8.25
2024-02-05T07:35:45.144Z,8.24
2024-02-05T07:38:11.556Z,8.25
2024-02-05T07:40:38.076Z,8.26
2024-02-05T07:43:04.546Z,8.26
2024-02-05T07:45:33.078Z,8.23
2024-02-05T07:47:59.894Z,8.26
2024-02-05T07:50:26.425Z,8.32
2024-02-05T07:52:52.850Z,8.36
2024-02-05T07:55:19.251Z,8.33
2024-02-05T07:57:45.709Z,8.30
2024-02-05T08:00:12.412Z,8.34
2024-02-05T08:02:38.917Z,8.30
2024-02-05T08:05:05.410Z,8.37
2024-02-05T08:07:32.439Z,8.33
2024-02-05T08:09:59.213Z,8.29
2024-02-05T08:12:25.766Z,8.36
2024-02-05T08:14:52.149Z,8.35
2024-02-05T08:17:18.629Z,8.33
2024-02-05T08:19:45.159Z,8.35
2024-02-05T08:22:11.683Z,8.38
2024-02-05T08:24:38.237Z,8.34
2024-02-05T08:27:04.672Z,8.37
2024-02-05T08:29:31.226Z,8.35
2024-02-05T08:31:59.303Z,8.33
2024-02-05T08:34:25.880Z,8.31
2024-02-05T08:36:52.436Z,8.26
2024-02-05T08:39:18.901Z,8.23
2024-02-05T08:41:45.297Z,8.28
2024-02-05T08:44:12.189Z,8.26
2024-02-05T08:46:38.912Z,8.27
2024-02-05T08:49:05.942Z,8.28
2024-02-05T08:51:32.418Z,8.28
2024-02-05T08:53:59.008Z,8.28
2024-02-05T08:56:25.454Z,8.26
2024-02-05T08:58:51.836Z,8.26
2024-02-05T09:01:18.384Z,8.30
2024-02-05T09:03:44.901Z,8.33
2024-02-05T09:06:11.408Z,8.32
2024-02-05T09:08:37.828Z,8.31
2024-02-05T09:11:07.290Z,8.38
2024-02-05T09:13:33.703Z,8.36
2024-02-05T09:16:00.180Z,8.35
2024-02-05T09:18:27.595Z,8.32
2024-02-05T09:20:54.058Z,8.40
2024-02-05T09:23:20.464Z,8.43
2024-02-05T09:25:47.565Z,8.38
2024-02-05T09:28:14.004Z,8.44
2024-02-05T09:30:40.828Z,8.31
2024-02-05T09:33:07.577Z,8.35
2024-02-05T09:35:34.086Z,8.31
2024-02-05T09:38:00.603Z,8.36
2024-02-05T09:40:27.039Z,8.35
2024-02-05T09:42:53.674Z,8.34
2024-02-05T09:45:20.060Z,8.29
2024-02-05T09:47:46.512Z,8.29
2024-02-05T09:50:13.626Z,8.31
2024-02-05T09:52:43.886Z,8.34
2024-02-05T09:55:11.277Z,8.33
2024-02-05T09:57:37.720Z,8.35
2024-02-05T10:00:04.326Z,8.40
2024-02-05T10:02:30.881Z,8.36
2024-02-05T10:04:57.658Z,8.38
2024-02-05T10:07:25.222Z,8.32
2024-02-05T10:09:51.794Z,8.41
2024-02-05T10:12:18.183Z,8.32
2024-02-05T10:14:44.571Z,8.29
2024-02-05T10:17:11.019Z,8.27
2024-02-05T10:19:37.544Z,8.33
2024-02-05T10:22:05.904Z,8.42
2024-02-05T10:24:32.720Z,8.37
2024-02-05T10:26:59.345Z,8.33
2024-02-05T10:29:26.068Z,8.37
2024-02-05T10:31:54.813Z,8.30
2024-02-05T10:34:24.992Z,8.37
2024-02-05T10:36:51.761Z,8.41
2024-02-05T10:39:25.329Z,8.41
2024-02-05T10:41:52.685Z,8.45
2024-02-05T10:44:25.333Z,8.48
2024-02-05T10:47:01.101Z,8.52
2024-02-05T10:49:27.542Z,8.58
2024-02-05T10:51:54.059Z,8.55
2024-02-05T10:54:20.595Z,8.57
2024-02-05T10:56:46.986Z,8.55
2024-02-05T10:59:13.366Z,8.60
2024-02-05T11:01:42.870Z,8.59
2024-02-05T11:04:10.739Z,8.60
2024-02-05T11:06:37.647Z,8.53
2024-02-05T11:09:05.932Z,8.62
2024-02-05T11:11:33.053Z,8.61
2024-02-05T11:14:00.962Z,8.66
2024-02-05T11:16:27.357Z,8.65
2024-02-05T11:18:55.276Z,8.58
2024-02-05T11:21:23.773Z,8.63
2024-02-05T11:23:50.277Z,8.67
2024-02-05T11:26:17.509Z,8.71
2024-02-05T11:28:43.983Z,8.70
2024-02-05T11:31:12.549Z,8.77
2024-02-05T11:33:39.117Z,8.79
2024-02-05T11:36:08.869Z,8.83
2024-02-05T11:38:35.333Z,8.77
2024-02-05T11:41:01.945Z,8.78
2024-02-05T11:43:30.088Z,8.79
2024-02-05T11:45:56.531Z,8.84
2024-02-05T11:48:23.118Z,8.85
2024-02-05T11:50:50.139Z,8.94
2024-02-05T11:53:16.896Z,8.90
2024-02-05T11:55:43.383Z,9.03
2024-02-05T11:58:09.924Z,9.05
2024-02-05T12:00:36.478Z,9.17
2024-02-05T12:03:02.931Z,9.14
2024-02-05T12:05:30.753Z,9.06
2024-02-05T12:07:57.301Z,9.03
2024-02-05T12:10:24.080Z,9.06
2024-02-05T12:12:51.917Z,9.08
2024-02-05T12:15:19.532Z,9.10
2024-02-05T12:17:47.046Z,9.09
2024-02-05T12:20:20.106Z,9.11
2024-02-05T12:22:49.587Z,9.11
2024-02-05T12:25:28.068Z,9.05
2024-02-05T12:28:02.114Z,9.05
2024-02-05T12:30:28.593Z,9.01
2024-02-05T12:32:55.369Z,8.99
2024-02-05T12:35:22.354Z,8.96
2024-02-05T12:37:49.184Z,8.93
2024-02-05T12:40:15.823Z,9.00
2024-02-05T12:42:42.253Z,9.03
2024-02-05T12:45:12.561Z,9.11
2024-02-05T12:47:42.411Z,9.12
2024-02-05T12:50:09.061Z,9.09
2024-02-05T12:52:35.606Z,9.10
2024-02-05T12:55:02.234Z,9.08
2024-02-05T12:57:29.459Z,9.04
2024-02-05T12:59:55.949Z,9.01
2024-02-05T13:02:22.746Z,9.08
2024-02-05T13:04:49.847Z,9.02
2024-02-05T13:07:19.756Z,8.97
2024-02-05T13:09:47.992Z,9.06
2024-02-05T13:12:14.400Z,9.02
2024-02-05T13:14:40.781Z,9.03
2024-02-05T13:17:07.608Z,9.09
2024-02-05T13:19:34.326Z,9.07
2024-02-05T13:22:01.365Z,9.03
2024-02-05T13:24:27.821Z,8.96
2024-02-05T13:26:55.369Z,8.91
2024-02-05T13:29:23.435Z,8.95
2024-02-05T13:31:49.808Z,8.95
2024-02-05T13:34:17.924Z,8.93
2024-02-05T13:36:44.566Z,8.95
2024-02-05T13:39:11.051Z,8.98
2024-02-05T13:41:40.241Z,8.85
2024-02-05T13:44:06.686Z,8.90
2024-02-05T13:46:33.169Z,8.91
2024-02-05T13:48:59.810Z,8.86
2024-02-05T13:51:26.810Z,8.86
2024-02-05T13:53:53.220Z,8.84
2024-02-05T13:56:19.587Z,8.79
2024-02-05T13:58:45.948Z,8.80
2024-02-05T14:01:12.554Z,8.84
2024-02-05T14:03:39.417Z,8.84
2024-02-05T14:06:05.819Z,8.86
2024-02-05T14:08:33.341Z,8.80
2024-02-05T14:11:02.523Z,8.85
2024-02-05T14:13:29.033Z,8.81
2024-02-05T14:15:55.475Z,8.81
2024-02-05T14:18:22.170Z,8.93
2024-02-05T14:20:48.705Z,8.86
2024-02-05T14:23:15.082Z,8.85
2024-02-05T14:25:41.709Z,8.90
2024-02-05T14:28:08.595Z,8.81
2024-02-05T14:30:35.128Z,8.82
2024-02-05T14:33:01.565Z,8.86
2024-02-05T14:35:28.071Z,8.83
2024-02-05T14:37:54.498Z,8.95
2024-02-05T14:40:20.922Z,8.96
2024-02-05T14:42:47.362Z,8.91
2024-02-05T14:45:16.449Z,8.91
2024-02-05T14:47:44.009Z,8.90
2024-02-05T14:50:10.808Z,9.00
2024-02-05T14:52:37.529Z,8.99
2024-02-05T14:55:04.764Z,8.91
2024-02-05T14:57:31.251Z,8.95
2024-02-05T14:59:57.665Z,8.90
2024-02-05T15:02:24.153Z,8.98
2024-02-05T15:04:50.752Z,8.91
2024-02-05T15:07:17.486Z,8.87
2024-02-05T15:09:45.900Z,8.88
2024-02-05T15:12:13.722Z,8.85
2024-02-05T15:14:40.869Z,8.86
2024-02-05T15:17:07.772Z,8.80
2024-02-05T15:19:34.442Z,8.81
2024-02-05T15:22:01.138Z,8.80
2024-02-05T15:24:27.658Z,8.75
2024-02-05T15:26:54.047Z,8.77
2024-02-05T15:29:20.437Z,8.77
2024-02-05T15:31:47.158Z,8.77
2024-02-05T15:34:13.887Z,8.81
2024-02-05T15:36:40.694Z,8.74
2024-02-05T15:39:11.561Z,8.73
2024-02-05T15:41:38.561Z,8.70
2024-02-05T15:44:05.289Z,8.67
2024-02-05T15:46:31.782Z,8.73
2024-02-05T15:48:58.397Z,8.66
2024-02-05T15:51:24.805Z,8.70
2024-02-05T15:53:51.210Z,8.69
2024-02-05T15:56:20.174Z,8.67
2024-02-05T15:58:48.896Z,8.63
2024-02-05T16:01:15.679Z,8.58
2024-02-05T16:03:44.985Z,8.63
2024-02-05T16:06:11.550Z,8.74
2024-02-05T16:08:40.451Z,8.65
2024-02-05T16:11:06.989Z,8.62
2024-02-05T16:13:34.329Z,8.60
2024-02-05T16:16:00.910Z,8.61
2024-02-05T16:18:28.888Z,8.57
2024-02-05T16:20:55.368Z,8.58
2024-02-05T16:23:21.874Z,8.60
2024-02-05T16:25:48.323Z,8.58
2024-02-05T16:28:15.239Z,8.63
2024-02-05T16:30:41.657Z,8.63
2024-02-05T16:33:08.081Z,8.52
2024-02-05T16:35:34.542Z,8.47
2024-02-05T16:38:00.912Z,8.41
2024-02-05T16:40:27.712Z,8.39
2024-02-05T16:42:54.164Z,8.47
2024-02-05T16:45:20.580Z,8.36
2024-02-05T16:47:47.106Z,8.37
2024-02-05T16:50:13.947Z,8.40
2024-02-05T16:52:40.482Z,8.34
2024-02-05T16:55:07.774Z,8.29
2024-02-05T16:57:34.224Z,8.27
2024-02-05T17:00:00.613Z,8.31
2024-02-05T17:02:27.001Z,8.32
2024-02-05T17:04:54.029Z,8.30
2024-02-05T17:07:20.892Z,8.21
2024-02-05T17:09:47.450Z,8.27
2024-02-05T17:12:14.498Z,8.21
2024-02-05T17:14:41.202Z,8.15
2024-02-05T17:17:08.255Z,8.18
2024-02-05T17:19:34.952Z,8.15
2024-02-05T17:22:05.536Z,8.08
2024-02-05T17:24:35.875Z,8.09
2024-02-05T17:27:02.653Z,8.12
2024-02-05T17:29:29.038Z,8.08
2024-02-05T17:31:57.798Z,8.07
2024-02-05T17:34:24.464Z,8.08
2024-02-05T17:36:51.151Z,8.03
2024-02-05T17:39:17.543Z,8.06
2024-02-05T17:41:43.930Z,7.99
2024-02-05T17:44:10.337Z,8.01
2024-02-05T17:46:36.900Z,8.07
2024-02-05T17:49:03.521Z,7.97
2024-02-05T17:51:30.924Z,7.95
2024-02-05T17:53:59.727Z,7.96
2024-02-05T17:56:26.216Z,7.87
2024-02-05T17:58:52.676Z,7.89
2024-02-05T18:01:19.180Z,7.98
2024-02-05T18:03:45.726Z,7.97
2024-02-05T18:06:19.415Z,7.88
2024-02-05T18:08:46.391Z,7.86
2024-02-05T18:11:12.903Z,7.88
2024-02-05T18:13:39.306Z,7.84
2024-02-05T18:16:06.148Z,7.81
2024-02-05T18:18:34.110Z,7.80
2024-02-05T18:21:00.800Z,7.81
2024-02-05T18:23:28.298Z,7.79
2024-02-05T18:25:55.040Z,7.81
2024-02-05T18:28:24.037Z,7.81
2024-02-05T18:30:51.016Z,7.82
2024-02-05T18:33:17.540Z,7.86
2024-02-05T18:35:45.941Z,7.81
2024-02-05T18:38:12.538Z,7.80
2024-02-05T18:40:38.907Z,7.75
2024-02-05T18:43:05.341Z,7.78
2024-02-05T18:45:32.047Z,7.72
2024-02-05T18:47:58.526Z,7.74
2024-02-05T18:50:25.002Z,7.72
2024-02-05T18:52:51.568Z,7.74
2024-02-05T18:55:17.963Z,7.77
2024-02-05T18:57:44.363Z,7.73
2024-02-05T19:00:11.267Z,7.67
2024-02-05T19:02:37.781Z,7.68
2024-02-05T19:05:04.518Z,7.61
2024-02-05T19:07:31.118Z,7.65
2024-02-05T19:09:57.680Z,7.65
2024-02-05T19:12:24.078Z,7.69
2024-02-05T19:14:50.569Z,7.64
2024-02-05T19:17:17.014Z,7.61
2024-02-05T19:19:43.499Z,7.57
2024-02-05T19:22:10.625Z,7.55
2024-02-05T19:24:38.374Z,7.60
2024-02-05T19:27:04.930Z,7.54
2024-02-05T19:29:31.432Z,7.51
2024-02-05T19:31:57.937Z,7.47
2024-02-05T19:34:24.652Z,7.46
2024-02-05T19:36:51.210Z,7.44
2024-02-05T19:39:17.720Z,7.51
2024-02-05T19:41:44.494Z,7.55
2024-02-05T19:44:10.993Z,7.46
2024-02-05T19:46:37.579Z,7.44
2024-02-05T19:49:04.364Z,7.40
2024-02-05T19:51:30.842Z,7.46
2024-02-05T19:53:58.943Z,7.49
2024-02-05T19:56:25.336Z,7.42
2024-02-05T19:58:51.721Z,7.39
2024-02-05T20:01:18.209Z,7.41
2024-02-05T20:03:46.681Z,7.38
2024-02-05T20:06:13.316Z,7.35
2024-02-05T20:08:43.341Z,7.41
2024-02-05T20:11:09.748Z,7.37
2024-02-05T20:13:36.229Z,7.32
2024-02-05T20:16:02.727Z,7.31
2024-02-05T20:18:29.265Z,7.27
2024-02-05T20:20:55.703Z,7.26
2024-02-05T20:23:22.079Z,7.30
2024-02-05T20:25:48.904Z,7.28
2024-02-05T20:28:15.346Z,7.27
2024-02-05T20:30:41.755Z,7.28
2024-02-05T20:33:08.629Z,7.23
2024-02-05T20:35:35.840Z,7.24
2024-02-05T20:38:02.563Z,7.23
2024-02-05T20:40:32.444Z,7.23
2024-02-05T20:42:59.771Z,7.15
2024-02-05T20:45:27.179Z,7.15
2024-02-05T20:47:56.742Z,7.13
2024-02-05T20:50:25.101Z,7.18
2024-02-05T20:52:55.185Z,7.12
2024-02-05T20:55:22.434Z,7.11
2024-02-05T20:57:49.499Z,7.15
2024-02-05T21:00:19.837Z,7.16
2024-02-05T21:02:46.965Z,7.14
2024-02-05T21:05:14.151Z,7.16
2024-02-05T21:07:41.216Z,7.08
2024-02-05T21:10:10.223Z,6.98
2024-02-05T21:12:38.717Z,6.96
2024-02-05T21:15:07.287Z,6.96
2024-02-05T21:17:36.135Z,6.98
2024-02-05T21:20:04.818Z,6.95
2024-02-05T21:22:34.128Z,6.88
2024-02-05T21:25:01.059Z,6.90
2024-02-05T21:27:27.800Z,6.95
2024-02-05T21:29:54.202Z,6.91
2024-02-05T21:32:20.617Z,6.88
2024-02-05T21:34:48.055Z,6.86
2024-02-05T21:37:16.208Z,6.82
2024-02-05T21:39:43.298Z,6.91
2024-02-05T21:42:09.927Z,6.85
2024-02-05T21:44:36.456Z,6.89
2024-02-05T21:47:02.875Z,6.86
2024-02-05T21:49:29.310Z,6.81
2024-02-05T21:51:55.839Z,6.85
2024-02-05T21:54:23.484Z,6.80
2024-02-05T21:56:50.729Z,6.81
2024-02-05T21:59:17.173Z,6.79
2024-02-05T22:01:43.747Z,6.81
2024-02-05T22:04:10.319Z,6.79
2024-02-05T22:06:36.778Z,6.73
2024-02-05T22:09:03.155Z,6.71
2024-02-05T22:11:29.643Z,6.74
2024-02-05T22:13:56.034Z,6.67
2024-02-05T22:16:22.471Z,6.62
2024-02-05T22:18:48.997Z,6.57
2024-02-05T22:21:15.488Z,6.54
2024-02-05T22:23:42.051Z,6.52
2024-02-05T22:26:08.455Z,6.49
2024-02-05T22:28:34.945Z,6.48
2024-02-05T22:31:03.067Z,6.45
2024-02-05T22:33:36.211Z,6.47
2024-02-05T22:36:04.466Z,6.46
2024-02-05T22:38:30.942Z,6.45
2024-02-05T22:40:57.369Z,6.39
2024-02-05T22:43:23.806Z,6.38
2024-02-05T22:45:50.215Z,6.44
2024-02-05T22:48:16.710Z,6.38
2024-02-05T22:50:43.189Z,6.46
2024-02-05T22:53:10.996Z,6.39
2024-02-05T22:55:37.725Z,6.44
2024-02-05T22:58:04.209Z,6.42
2024-02-05T23:00:33.295Z,6.38
2024-02-05T23:02:59.691Z,6.39
2024-02-05T23:05:26.173Z,6.38
2024-02-05T23:07:52.968Z,6.37
2024-02-05T23:10:20.265Z,6.36
2024-02-05T23:12:46.684Z,6.45
2024-02-05T23:15:13.593Z,6.41
2024-02-05T23:17:40.017Z,6.41
2024-02-05T23:20:06.927Z,6.42
2024-02-05T23:22:33.680Z,6.42
2024-02-05T23:25:00.381Z,6.43
2024-02-05T23:27:26.796Z,6.40
2024-02-05T23:29:53.221Z,6.39
2024-02-05T23:32:20.093Z,6.41
2024-02-05T23:34:48.251Z,6.36
2024-02-05T23:37:20.118Z,6.41
2024-02-05T23:39:46.741Z,6.34
2024-02-05T23:42:13.156Z,6.29
2024-02-05T23:44:39.766Z,6.24
2024-02-05T23:47:07.564Z,6.28
2024-02-05T23:49:34.807Z,6.32
2024-02-05T23:52:01.350Z,6.27
2024-02-05T23:54:27.820Z,6.30
2024-02-05T23:56:54.532Z,6.28
2024-02-05T23:59:22.407Z,6.24
